Time;durP1;ratioP1;P1;durP2;ratioP2;P2;SDS_P1;SDS_P2;PMS_P1;PMS_P2;Temp;Humidity;BMP_temperature;BMP_pressure;BME280_temperature;BME280_humidity;BME280_pressure;Samples;Min_cycle;Max_cycle;Signal;HPM_P1;HPM_P2
2024/02/23 00:00:48;;;;;;;4.00;0.90;;;;;;;9.91;58.69;97850.75;4150078;28;20049;-75
2024/02/23 00:02:49;;;;;;;3.30;0.80;;;;;;;10.06;58.07;97849.84;4141031;28;20042;-75
2024/02/23 00:04:49;;;;;;;2.07;0.40;;;;;;;9.94;58.61;97854.88;4144536;28;20398;-75
2024/02/23 00:06:50;;;;;;;2.03;0.55;;;;;;;9.75;58.84;97862.53;4142972;28;20125;-75
2024/02/23 00:08:53;;;;;;;1.73;0.52;;;;;;;9.67;58.72;97860.84;4146435;28;20049;-74
2024/02/23 00:10:53;;;;;;;4.30;0.60;;;;;;;9.59;59.09;97865.47;4142929;28;20077;-76
2024/02/23 00:12:54;;;;;;;2.60;0.50;;;;;;;9.86;58.49;97873.69;4147198;28;20026;-76
2024/02/23 00:14:54;;;;;;;5.22;1.05;;;;;;;9.97;58.20;97868.66;4146237;28;20034;-75
2024/02/23 00:16:56;;;;;;;3.67;0.60;;;;;;;9.64;58.79;97884.38;4144103;28;20160;-75
2024/02/23 00:18:56;;;;;;;1.52;0.50;;;;;;;9.60;58.60;97870.63;4133576;28;20022;-76
2024/02/23 00:20:57;;;;;;;5.00;0.98;;;;;;;9.52;58.78;97871.59;4144284;28;20060;-75
2024/02/23 00:22:57;;;;;;;4.35;0.75;;;;;;;9.56;58.92;97880.03;4145392;28;20458;-76
2024/02/23 00:24:57;;;;;;;2.10;0.60;;;;;;;9.50;58.93;97864.78;4148691;28;20079;-73
2024/02/23 00:26:58;;;;;;;2.17;0.60;;;;;;;9.62;58.54;97884.59;4142890;28;20169;-73
2024/02/23 00:28:59;;;;;;;5.57;1.70;;;;;;;9.40;58.79;97875.78;4135843;28;20034;-76
2024/02/23 00:30:59;;;;;;;5.13;0.70;;;;;;;9.45;58.81;97884.00;4145500;28;20045;-75
2024/02/23 00:33:00;;;;;;;3.17;0.75;;;;;;;9.45;58.70;97877.88;4148354;28;20037;-75
2024/02/23 00:35:00;;;;;;;3.13;0.73;;;;;;;9.44;58.40;97870.88;4148360;28;20033;-75
2024/02/23 00:37:00;;;;;;;3.13;0.70;;;;;;;9.24;58.26;97870.69;4148630;28;20107;-76
2024/02/23 00:39:01;;;;;;;2.40;0.77;;;;;;;9.34;57.81;97896.03;4148095;28;20711;-76
2024/02/23 00:41:02;;;;;;;9.48;0.93;;;;;;;9.52;57.40;97895.59;4147018;28;20425;-76
2024/02/23 00:43:03;;;;;;;6.43;0.80;;;;;;;9.52;57.21;97903.59;4146806;28;20073;-75
2024/02/23 00:45:04;;;;;;;4.47;0.98;;;;;;;9.57;56.99;97913.69;4147871;28;20029;-76
2024/02/23 00:47:04;;;;;;;;;;;;;;;9.42;56.88;97897.75;4148435;28;20038;-75
2024/02/23 00:49:06;;;;;;;3.33;0.63;;;;;;;9.45;56.77;97905.34;4147693;28;19949;-75
2024/02/23 00:51:07;;;;;;;4.75;0.90;;;;;;;9.41;56.66;97906.75;4147652;28;20038;-74
2024/02/23 00:53:07;;;;;;;4.90;0.80;;;;;;;9.43;56.25;97899.41;4148663;28;20034;-76
2024/02/23 00:55:08;;;;;;;2.65;0.70;;;;;;;9.76;55.60;97900.72;4148915;28;20091;-74
2024/02/23 00:57:08;;;;;;;4.50;0.82;;;;;;;9.65;55.62;97899.38;4148664;28;20103;-76
2024/02/23 00:59:09;;;;;;;3.13;0.70;;;;;;;9.34;55.94;97916.53;4146540;28;20026;-76
2024/02/23 01:01:09;;;;;;;3.65;1.08;;;;;;;9.36;55.74;97912.66;4146885;28;20033;-74
2024/02/23 01:03:10;;;;;;;4.90;1.00;;;;;;;9.28;55.66;97909.28;4147109;28;20111;-74
2024/02/23 01:05:10;;;;;;;5.65;0.95;;;;;;;9.45;55.33;97921.34;4147160;28;20033;-74
2024/02/23 01:07:10;;;;;;;5.35;1.20;;;;;;;9.29;55.71;97921.59;4147750;28;20029;-74
2024/02/23 01:09:11;;;;;;;6.17;0.90;;;;;;;9.36;55.41;97930.50;4147725;28;20025;-74
2024/02/23 01:11:11;;;;;;;5.47;0.90;;;;;;;9.13;55.74;97939.47;4147389;28;20358;-74
2024/02/23 01:13:12;;;;;;;5.72;1.05;;;;;;;9.16;55.80;97944.41;4147749;28;20024;-75
2024/02/23 01:15:12;;;;;;;2.60;0.60;;;;;;;9.30;55.51;97940.09;4147399;28;20029;-74
2024/02/23 01:17:12;;;;;;;4.18;0.90;;;;;;;9.28;55.62;97926.13;4147905;28;20265;-74
2024/02/23 01:19:13;;;;;;;7.30;0.77;;;;;;;9.14;55.88;97925.16;4146066;28;20026;-75
2024/02/23 01:21:13;;;;;;;5.53;1.30;;;;;;;9.00;56.04;97932.16;4147343;28;20072;-75
2024/02/23 01:23:14;;;;;;;4.82;1.00;;;;;;;9.24;55.78;97927.50;4147668;28;20350;-75
2024/02/23 01:25:15;;;;;;;4.82;1.13;;;;;;;9.38;55.58;97922.31;4147065;28;20117;-74
2024/02/23 01:27:15;;;;;;;5.70;1.08;;;;;;;9.19;55.97;97917.41;4147542;28;20380;-74
2024/02/23 01:29:16;;;;;;;6.35;2.10;;;;;;;9.34;55.72;97919.22;4147596;28;20105;-75
2024/02/23 01:31:17;;;;;;;4.80;0.80;;;;;;;9.43;55.47;97923.41;4146179;28;20510;-74
2024/02/23 01:33:17;;;;;;;4.47;0.80;;;;;;;9.11;55.88;97914.03;4146516;28;20052;-74
2024/02/23 01:35:17;;;;;;;4.93;1.00;;;;;;;9.01;55.87;97930.31;4151717;28;20257;-74
2024/02/23 01:37:18;;;;;;;5.72;1.23;;;;;;;9.11;55.66;97935.34;4159211;28;20137;-74
2024/02/23 01:39:18;;;;;;;5.82;1.13;;;;;;;9.09;55.38;97954.19;4160944;28;20034;-76
2024/02/23 01:41:19;;;;;;;6.35;1.40;;;;;;;8.95;55.22;97931.06;4161132;28;20037;-76
2024/02/23 01:43:19;;;;;;;4.90;0.90;;;;;;;9.12;54.79;97943.16;4164295;28;20037;-76
2024/02/23 01:45:19;;;;;;;3.67;0.70;;;;;;;9.02;55.12;97948.75;4164740;28;20260;-76
2024/02/23 01:47:20;;;;;;;7.75;1.38;;;;;;;8.93;55.55;97949.06;4160928;28;20030;-74
2024/02/23 01:49:21;;;;;;;5.03;1.35;;;;;;;9.07;55.18;97956.19;4160771;28;20030;-74
2024/02/23 01:51:22;;;;;;;6.43;1.08;;;;;;;8.90;55.23;97961.75;4160252;28;20018;-74
2024/02/23 01:53:25;;;;;;;5.10;1.00;;;;;;;9.20;54.55;97961.72;4154677;28;20051;-75
2024/02/23 01:55:25;;;;;;;3.95;0.88;;;;;;;9.20;54.48;97963.56;4149474;28;20371;-74
2024/02/23 01:57:27;;;;;;;3.25;1.48;;;;;;;9.25;54.39;97965.66;4150473;28;20029;-75
2024/02/23 01:59:28;;;;;;;4.82;1.23;;;;;;;9.16;54.45;97965.75;4162149;28;20509;-74
2024/02/23 02:01:30;;;;;;;5.53;0.95;;;;;;;8.89;54.92;97970.75;4146312;28;20030;-74
2024/02/23 02:03:31;;;;;;;7.22;1.08;;;;;;;9.06;54.79;97970.56;4146525;28;20125;-75
2024/02/23 02:05:32;;;;;;;6.60;1.25;;;;;;;9.19;54.31;97975.22;4146897;28;20040;-75
2024/02/23 02:07:32;;;;;;;4.27;1.10;;;;;;;9.18;54.39;97968.25;4147134;28;20386;-75
2024/02/23 02:09:33;;;;;;;11.13;1.50;;;;;;;8.88;54.65;97979.75;4146914;28;20268;-75
2024/02/23 02:11:33;;;;;;;3.22;0.88;;;;;;;9.20;54.10;97969.72;4146549;28;20034;-74
2024/02/23 02:13:34;;;;;;;4.78;0.93;;;;;;;8.83;54.74;97970.69;4145802;28;20025;-74
2024/02/23 02:15:35;;;;;;;8.20;0.93;;;;;;;8.99;54.35;97980.28;4146154;28;20549;-75
2024/02/23 02:17:35;;;;;;;5.70;0.90;;;;;;;9.03;54.09;97978.94;4146625;28;20348;-74
2024/02/23 02:19:36;;;;;;;5.82;1.35;;;;;;;8.82;54.41;97985.81;4146710;28;20107;-74
2024/02/23 02:21:38;;;;;;;3.42;0.60;;;;;;;8.69;54.23;97988.31;4146509;28;20022;-76
2024/02/23 02:23:38;;;;;;;4.53;0.90;;;;;;;8.79;53.77;97988.84;4146556;28;20036;-76
2024/02/23 02:25:39;;;;;;;4.75;0.95;;;;;;;8.88;53.66;97982.41;4146564;28;20026;-76
2024/02/23 02:27:39;;;;;;;4.15;0.77;;;;;;;9.15;53.17;97988.13;4146424;28;20478;-76
2024/02/23 02:29:40;;;;;;;3.27;0.80;;;;;;;8.85;53.55;98001.44;4146549;28;20382;-76
2024/02/23 02:31:41;;;;;;;3.53;0.95;;;;;;;8.94;53.27;98004.03;4146394;28;20267;-76
2024/02/23 02:33:41;;;;;;;5.57;0.88;;;;;;;9.08;53.17;98005.84;4146807;28;20026;-76
2024/02/23 02:35:42;;;;;;;5.93;1.02;;;;;;;8.92;53.55;98006.88;4146547;28;20104;-75
2024/02/23 02:37:42;;;;;;;2.88;0.70;;;;;;;8.90;53.64;97999.03;4149733;28;20030;-76
2024/02/23 02:39:42;;;;;;;3.38;0.90;;;;;;;9.10;53.32;98008.34;4143114;28;20034;-76
2024/02/23 02:41:43;;;;;;;3.53;0.90;;;;;;;8.79;53.65;97999.50;4145532;28;20037;-76
2024/02/23 02:43:44;;;;;;;2.38;0.68;;;;;;;9.05;53.15;98007.03;4161946;28;20272;-76
2024/02/23 02:45:44;;;;;;;6.40;0.88;;;;;;;8.88;53.47;98009.06;4142098;28;20044;-76
2024/02/23 02:47:44;;;;;;;4.82;0.70;;;;;;;8.68;53.75;98007.97;4129799;28;20475;-76
2024/02/23 02:49:45;;;;;;;3.80;0.73;;;;;;;8.83;53.31;98006.13;4131978;28;20680;-76
2024/02/23 02:51:46;;;;;;;6.07;1.00;;;;;;;8.95;53.37;98011.81;4130728;28;20643;-76
2024/02/23 02:53:46;;;;;;;4.15;0.80;;;;;;;8.71;53.85;98015.56;4130613;28;20486;-76
2024/02/23 02:55:47;;;;;;;5.40;0.93;;;;;;;9.05;53.01;98012.38;4130443;28;20542;-76
2024/02/23 02:57:47;;;;;;;6.88;1.25;;;;;;;9.13;52.67;98008.78;4128894;28;20144;-76
2024/02/23 02:59:50;;;;;;;4.82;0.93;;;;;;;8.84;53.01;98007.78;4130417;28;20034;-76
2024/02/23 03:01:50;;;;;;;4.97;0.77;;;;;;;8.77;53.12;98006.88;4128805;28;20033;-76
2024/02/23 03:03:51;;;;;;;6.60;0.88;;;;;;;9.05;52.57;98011.56;4129557;28;20050;-76
2024/02/23 03:05:51;;;;;;;7.10;0.83;;;;;;;9.11;52.41;98018.00;4130844;28;20479;-76
2024/02/23 03:07:51;;;;;;;2.33;0.80;;;;;;;8.95;52.81;98021.66;4130395;28;20030;-76
2024/02/23 03:09:52;;;;;;;5.57;0.85;;;;;;;9.12;52.70;98020.47;4130350;28;20344;-76
2024/02/23 03:11:54;;;;;;;5.10;1.63;;;;;;;8.85;52.93;98013.94;4129514;28;20069;-76
2024/02/23 03:13:55;;;;;;;5.95;0.90;;;;;;;8.96;52.99;98031.31;4128732;28;20029;-76
2024/02/23 03:15:55;;;;;;;8.80;1.83;;;;;;;8.93;52.88;98019.16;4129934;28;20110;-76
2024/02/23 03:17:56;;;;;;;3.80;0.68;;;;;;;8.92;52.91;98022.88;4129958;28;20724;-77
2024/02/23 03:19:57;;;;;;;3.60;1.10;;;;;;;9.01;52.71;98021.75;4128744;28;20041;-77
2024/02/23 03:21:58;;;;;;;4.68;0.70;;;;;;;9.25;52.37;98027.00;4145043;28;20055;-76
2024/02/23 03:23:59;;;;;;;;;;;;;;;8.95;52.84;98021.66;4130440;28;20053;-76
2024/02/23 03:25:59;;;;;;;4.00;0.97;;;;;;;8.93;53.07;98011.16;4130141;28;19916;-76
2024/02/23 03:28:00;;;;;;;4.17;0.70;;;;;;;9.03;52.98;98014.38;4131463;28;20479;-76
2024/02/23 03:30:00;;;;;;;5.38;0.80;;;;;;;9.11;52.75;98026.00;4133165;28;20293;-76
2024/02/23 03:32:01;;;;;;;7.03;0.90;;;;;;;8.98;53.03;98014.13;4132889;28;20395;-76
2024/02/23 03:34:03;;;;;;;3.67;0.70;;;;;;;9.15;52.96;97993.44;4132792;28;20536;-76
2024/02/23 03:36:03;;;;;;;2.47;0.60;;;;;;;9.47;52.07;98007.34;4132884;28;20032;-75
2024/02/23 03:38:04;;;;;;;3.35;0.80;;;;;;;9.20;52.64;98008.88;4132965;28;20478;-76
2024/02/23 03:40:06;;;;;;;3.78;0.82;;;;;;;8.90;53.33;98009.72;4133070;28;20042;-76
2024/02/23 03:42:07;;;;;;;5.68;0.82;;;;;;;8.93;53.28;98005.03;4131010;28;20065;-77
2024/02/23 03:44:07;;;;;;;2.28;0.60;;;;;;;8.67;53.23;98008.97;4133122;28;20030;-76
2024/02/23 03:46:08;;;;;;;4.38;0.85;;;;;;;8.90;52.78;98020.38;4132849;28;20036;-76
2024/02/23 03:48:08;;;;;;;5.50;1.20;;;;;;;8.78;53.05;98005.88;4132981;28;20129;-76
2024/02/23 03:50:09;;;;;;;2.95;0.93;;;;;;;8.80;52.62;98009.16;4133089;28;20451;-76
2024/02/23 03:52:10;;;;;;;5.20;0.93;;;;;;;8.97;52.58;98001.81;4132553;28;20115;-77
2024/02/23 03:54:11;;;;;;;4.18;1.13;;;;;;;9.06;52.55;98013.22;4133030;28;20034;-76
2024/02/23 03:56:11;;;;;;;2.97;0.70;;;;;;;9.03;52.72;98008.25;4131279;28;20153;-76
2024/02/23 03:58:11;;;;;;;5.10;1.10;;;;;;;9.05;52.70;98032.88;4132654;28;20041;-76
2024/02/23 04:00:13;;;;;;;2.27;0.50;;;;;;;8.94;52.87;98036.00;4132479;28;20023;-76
2024/02/23 04:02:14;;;;;;;2.40;0.55;;;;;;;8.90;52.76;98031.03;4130859;28;20265;-76
2024/02/23 04:04:14;;;;;;;6.18;1.48;;;;;;;8.81;52.79;98028.66;4130317;28;20529;-76
2024/02/23 04:06:15;;;;;;;3.95;0.65;;;;;;;8.79;52.85;98034.13;4131096;28;20120;-76
2024/02/23 04:08:16;;;;;;;3.87;0.83;;;;;;;8.56;52.64;98029.72;4131207;28;20141;-76
2024/02/23 04:10:16;;;;;;;4.45;0.95;;;;;;;8.80;52.25;98043.78;4132290;28;20829;-76
2024/02/23 04:12:16;;;;;;;3.03;0.67;;;;;;;8.93;51.93;98045.81;4130792;28;20118;-76
2024/02/23 04:14:17;;;;;;;3.60;0.65;;;;;;;8.76;52.33;98047.00;4131397;28;20434;-76
2024/02/23 04:16:17;;;;;;;3.13;0.80;;;;;;;8.76;52.03;98055.00;4131326;28;20510;-76
2024/02/23 04:18:18;;;;;;;3.07;0.70;;;;;;;8.60;51.87;98040.84;4132510;28;20382;-76
2024/02/23 04:20:18;;;;;;;2.33;0.67;;;;;;;8.69;51.61;98030.94;4132227;28;20376;-76
2024/02/23 04:22:19;;;;;;;3.50;1.15;;;;;;;8.86;51.31;98035.09;4132650;28;20494;-76
2024/02/23 04:24:19;;;;;;;3.88;0.95;;;;;;;8.80;51.17;98033.13;4132861;28;20042;-76
2024/02/23 04:26:20;;;;;;;4.05;1.08;;;;;;;8.80;50.73;98038.47;4131080;28;20026;-76
2024/02/23 04:28:20;;;;;;;6.60;0.90;;;;;;;8.64;50.52;98034.16;4132726;28;20034;-76
2024/02/23 04:30:21;;;;;;;3.50;0.83;;;;;;;8.64;50.29;98038.63;4132457;28;20134;-76
2024/02/23 04:32:22;;;;;;;3.70;0.93;;;;;;;8.64;50.31;98036.81;4132656;28;20029;-76
2024/02/23 04:34:22;;;;;;;3.92;0.90;;;;;;;8.73;50.16;98034.88;4132606;28;20388;-76
2024/02/23 04:36:22;;;;;;;3.50;0.83;;;;;;;8.87;50.00;98039.41;4132349;28;20113;-76
2024/02/23 04:38:23;;;;;;;4.07;0.80;;;;;;;8.71;50.22;98044.88;4132245;28;20277;-76
2024/02/23 04:40:23;;;;;;;5.63;1.03;;;;;;;8.79;50.31;98039.47;4130954;28;20359;-75
2024/02/23 04:42:24;;;;;;;8.25;1.23;;;;;;;8.99;49.83;98028.25;4147198;28;20044;-76
2024/02/23 04:44:24;;;;;;;4.60;0.65;;;;;;;8.97;49.88;98027.66;4152267;28;20124;-76
2024/02/23 04:46:25;;;;;;;4.47;0.82;;;;;;;8.75;50.30;98035.53;4148258;28;20406;-75
2024/02/23 04:48:26;;;;;;;4.13;0.85;;;;;;;8.98;50.01;98031.94;4148484;28;20022;-76
2024/02/23 04:50:26;;;;;;;6.00;1.00;;;;;;;8.93;49.98;98045.00;4132473;28;20014;-77
2024/02/23 04:52:27;;;;;;;4.60;0.83;;;;;;;8.89;50.04;98028.56;4131200;28;20265;-75
2024/02/23 04:54:28;;;;;;;3.30;1.00;;;;;;;9.01;50.00;98031.59;4132506;28;20297;-76
2024/02/23 04:56:28;;;;;;;5.60;1.10;;;;;;;8.92;49.96;98032.69;4132068;28;20565;-76
2024/02/23 04:58:28;;;;;;;3.70;0.70;;;;;;;9.18;49.67;98037.56;4132521;28;20375;-76
2024/02/23 05:00:33;;;;;;;6.18;1.40;;;;;;;8.97;50.17;98035.63;4137240;28;20038;-75
2024/02/23 05:02:35;;;;;;;5.82;1.10;;;;;;;8.82;50.25;98039.09;4138929;28;20021;-75
2024/02/23 05:04:35;;;;;;;4.60;0.90;;;;;;;8.92;50.02;98038.00;4140815;28;20046;-76
2024/02/23 05:06:36;;;;;;;3.60;0.73;;;;;;;8.89;50.11;98045.34;4153896;28;20696;-76
2024/02/23 05:08:37;;;;;;;4.75;0.80;;;;;;;8.84;50.18;98047.75;4156138;28;20022;-76
2024/02/23 05:10:38;;;;;;;3.63;1.02;;;;;;;9.02;49.92;98038.56;4154950;28;20129;-76
2024/02/23 05:12:38;;;;;;;2.03;0.68;;;;;;;9.03;49.92;98030.38;4165102;28;20029;-76
2024/02/23 05:14:40;;;;;;;2.50;0.70;;;;;;;9.03;49.81;98026.91;4176458;28;20060;-76
2024/02/23 05:16:41;;;;;;;3.90;1.00;;;;;;;8.90;50.19;98024.88;4183223;28;20276;-75
2024/02/23 05:18:41;;;;;;;4.15;0.70;;;;;;;8.70;50.12;98035.22;4167638;28;20108;-75
2024/02/23 05:20:42;;;;;;;2.25;0.65;;;;;;;8.98;50.01;98031.94;4163550;28;20022;-77
2024/02/23 05:22:42;;;;;;;3.50;1.00;;;;;;;9.00;49.95;98027.25;4162946;28;20036;-76
2024/02/23 05:24:44;;;;;;;5.07;0.93;;;;;;;8.92;50.05;98028.19;4163359;28;20033;-75
2024/02/23 05:26:44;;;;;;;4.93;1.02;;;;;;;8.82;50.29;98032.97;4161802;28;20272;-76
2024/02/23 05:28:45;;;;;;;3.08;0.60;;;;;;;8.92;49.92;98038.00;4163575;28;20103;-76
2024/02/23 05:30:45;;;;;;;3.73;0.80;;;;;;;8.93;49.87;98035.16;4162919;28;20091;-76
2024/02/23 05:32:46;;;;;;;5.20;1.00;;;;;;;8.98;49.84;98038.13;4163242;28;20816;-77
2024/02/23 05:34:51;;;;;;;4.18;1.10;;;;;;;8.71;50.09;98029.75;4163021;28;20032;-76
2024/02/23 05:36:51;;;;;;;5.35;0.75;;;;;;;8.95;49.80;98027.00;4163232;28;20029;-76
2024/02/23 05:38:52;;;;;;;6.28;1.00;;;;;;;9.11;49.52;98036.66;4162795;28;20025;-76
2024/02/23 05:40:52;;;;;;;4.28;1.00;;;;;;;8.86;49.68;98039.56;4162680;28;20083;-76
2024/02/23 05:42:54;;;;;;;6.97;1.40;;;;;;;9.04;49.24;98037.38;4163037;28;20075;-76
2024/02/23 05:44:55;;;;;;;3.00;1.05;;;;;;;9.02;49.52;98033.25;4160885;28;20072;-76
2024/02/23 05:46:55;;;;;;;5.60;0.88;;;;;;;9.02;49.44;98043.91;4162751;28;20631;-76
2024/02/23 05:48:56;;;;;;;3.70;0.77;;;;;;;8.84;49.71;98050.41;4163462;28;20032;-76
2024/02/23 05:50:57;;;;;;;2.67;0.73;;;;;;;8.94;49.73;98052.81;4162866;28;20029;-76
2024/02/23 05:52:58;;;;;;;6.53;1.30;;;;;;;8.77;49.98;98057.50;4162619;28;20087;-76
2024/02/23 05:54:59;;;;;;;5.40;0.98;;;;;;;8.79;49.63;98050.13;4162921;28;20038;-75
2024/02/23 05:57:00;;;;;;;4.18;1.08;;;;;;;8.61;49.55;98052.31;4161505;28;20056;-76
2024/02/23 05:59:01;;;;;;;5.80;1.65;;;;;;;8.78;49.45;98052.97;4163147;28;20021;-76
2024/02/23 06:01:02;;;;;;;6.10;1.20;;;;;;;8.74;49.29;98053.34;4162706;28;20083;-76
2024/02/23 06:03:03;;;;;;;4.05;0.90;;;;;;;8.81;49.29;98049.97;4161922;28;20514;-76
2024/02/23 06:05:05;;;;;;;3.92;1.02;;;;;;;8.87;49.26;98052.72;4162944;28;20124;-75
2024/02/23 06:07:05;;;;;;;4.43;0.93;;;;;;;8.99;49.17;98044.25;4163555;28;20033;-76
2024/02/23 06:09:06;;;;;;;9.43;1.25;;;;;;;9.02;49.12;98046.56;4163474;28;20025;-76
2024/02/23 06:11:09;;;;;;;4.68;1.00;;;;;;;8.85;49.51;98053.91;4163387;28;20386;-76
2024/02/23 06:13:09;;;;;;;4.90;0.80;;;;;;;8.67;49.60;98056.94;4162850;28;20135;-76
2024/02/23 06:15:10;;;;;;;4.78;0.80;;;;;;;8.97;49.20;98052.44;4162442;28;20492;-76
2024/02/23 06:17:11;;;;;;;4.95;0.98;;;;;;;8.94;49.41;98057.31;4161242;28;20032;-76
2024/02/23 06:19:11;;;;;;;3.92;0.90;;;;;;;9.05;49.20;98060.34;4162031;28;20475;-75
2024/02/23 06:21:15;;;;;;;4.90;1.10;;;;;;;9.09;49.10;98060.00;4162178;28;20508;-74
2024/02/23 06:23:16;;;;;;;6.22;1.17;;;;;;;8.80;49.71;98066.94;4161566;28;20068;-75
2024/02/23 06:25:17;;;;;;;4.72;0.80;;;;;;;8.86;49.65;98072.38;4162708;28;20034;-74
2024/02/23 06:27:17;;;;;;;2.75;0.93;;;;;;;8.92;49.75;98070.84;4161587;28;20029;-74
2024/02/23 06:29:18;;;;;;;2.50;0.77;;;;;;;8.94;49.73;98075.97;4161868;28;20474;-74
2024/02/23 06:31:18;;;;;;;3.40;1.00;;;;;;;8.92;49.73;98091.31;4162534;28;20116;-74
2024/02/23 06:33:19;;;;;;;5.00;1.07;;;;;;;8.92;49.59;98084.16;4162543;28;20411;-74
2024/02/23 06:35:21;;;;;;;3.38;0.80;;;;;;;8.90;49.84;98088.84;4162078;28;20326;-77
2024/02/23 06:37:22;;;;;;;6.47;1.20;;;;;;;9.01;49.45;98090.22;4162014;28;20029;-74
2024/02/23 06:39:22;;;;;;;4.28;1.08;;;;;;;9.05;49.46;98091.53;4162621;28;20018;-75
2024/02/23 06:41:23;;;;;;;3.30;0.95;;;;;;;8.92;49.74;98083.31;4162788;28;20038;-74
2024/02/23 06:43:23;;;;;;;3.27;0.80;;;;;;;8.92;49.74;98091.31;4163117;28;20058;-77
2024/02/23 06:45:25;;;;;;;4.82;1.23;;;;;;;8.90;49.89;98100.31;4165487;28;20330;-75
2024/02/23 06:47:26;;;;;;;5.20;1.08;;;;;;;8.77;50.00;98109.94;4176910;28;20052;-76
2024/02/23 06:49:26;;;;;;;4.53;1.30;;;;;;;8.71;49.85;98104.34;4180986;28;20018;-75
2024/02/23 06:51:26;;;;;;;3.23;0.90;;;;;;;8.70;49.96;98104.50;4177347;28;20699;-76
2024/02/23 06:53:28;;;;;;;3.13;1.00;;;;;;;8.64;49.82;98102.56;4173449;28;20083;-75
2024/02/23 06:55:28;;;;;;;3.63;0.90;;;;;;;8.75;49.66;98104.78;4166028;28;20029;-75
2024/02/23 06:57:30;;;;;;;4.03;1.00;;;;;;;8.83;49.38;98104.72;4173702;28;20031;-75
2024/02/23 06:59:32;;;;;;;4.57;1.00;;;;;;;8.88;49.49;98106.84;4174552;28;20077;-75
2024/02/23 07:01:35;;;;;;;3.40;0.88;;;;;;;8.76;49.30;98108.28;4176154;28;20026;-75
2024/02/23 07:03:36;;;;;;;3.55;0.90;;;;;;;8.76;49.41;98105.59;4181099;28;20041;-75
2024/02/23 07:05:37;;;;;;;;;;;;;;;8.65;49.58;98107.69;4182202;28;20515;-75
2024/02/23 07:07:40;;;;;;;5.53;1.30;;;;;;;8.66;49.75;98111.19;4179343;28;19912;-75
2024/02/23 07:09:40;;;;;;;3.17;0.80;;;;;;;8.70;49.68;98101.81;4180354;28;20024;-75
2024/02/23 07:11:43;;;;;;;4.80;1.00;;;;;;;8.71;49.79;98098.16;4167017;28;20029;-74
2024/02/23 07:13:44;;;;;;;4.13;1.10;;;;;;;8.78;49.74;98093.78;4164716;28;20358;-75
2024/02/23 07:15:44;;;;;;;3.53;0.90;;;;;;;8.81;49.54;98098.72;4165945;28;20022;-74
2024/02/23 07:17:45;;;;;;;5.80;1.23;;;;;;;8.67;49.79;98099.53;4164369;28;20030;-74
2024/02/23 07:19:47;;;;;;;3.58;0.63;;;;;;;8.78;49.59;98101.78;4165035;28;20288;-74
2024/02/23 07:21:48;;;;;;;4.07;0.90;;;;;;;8.75;49.64;98102.13;4164125;28;20033;-74
2024/02/23 07:23:48;;;;;;;2.90;0.60;;;;;;;8.85;49.51;98108.03;4164200;28;20052;-74
2024/02/23 07:25:50;;;;;;;5.27;0.87;;;;;;;8.71;50.09;98108.81;4165541;28;20025;-74
2024/02/23 07:27:51;;;;;;;3.42;0.90;;;;;;;8.76;49.89;98113.59;4165553;28;20017;-74
2024/02/23 07:29:51;;;;;;;3.45;0.90;;;;;;;8.84;49.77;98105.53;4165407;28;20485;-74
2024/02/23 07:31:53;;;;;;;4.73;1.23;;;;;;;8.83;49.68;98098.56;4165725;28;20044;-74
2024/02/23 07:33:53;;;;;;;5.90;0.85;;;;;;;8.74;49.87;98108.47;4164571;28;20744;-74
2024/02/23 07:35:54;;;;;;;3.07;1.00;;;;;;;8.86;49.77;98104.38;4164224;28;20071;-74
2024/02/23 07:37:55;;;;;;;5.70;1.10;;;;;;;8.82;49.78;98113.72;4165694;28;20264;-75
2024/02/23 07:39:55;;;;;;;6.85;1.10;;;;;;;8.80;49.86;98107.72;4164464;28;20726;-74
2024/02/23 07:41:56;;;;;;;4.00;1.02;;;;;;;8.63;49.99;98115.06;4164624;28;20075;-74
2024/02/23 07:43:57;;;;;;;4.38;1.10;;;;;;;8.90;49.56;98116.28;4165211;28;20468;-73
2024/02/23 07:45:57;;;;;;;3.22;1.20;;;;;;;9.11;49.42;98111.28;4165459;28;20037;-75
2024/02/23 07:47:58;;;;;;;3.42;0.75;;;;;;;8.85;49.77;98113.38;4166143;28;20475;-74
2024/02/23 07:49:58;;;;;;;2.60;0.98;;;;;;;9.04;49.35;98111.19;4164679;28;20037;-74
2024/02/23 07:51:59;;;;;;;5.32;1.10;;;;;;;8.99;49.37;98117.06;4164398;28;20108;-75
2024/02/23 07:54:00;;;;;;;3.40;1.00;;;;;;;9.08;49.05;98103.66;4165011;28;20030;-75
2024/02/23 07:56:02;;;;;;;3.67;1.10;;;;;;;9.00;49.17;98104.53;4164686;28;20445;-76
2024/02/23 07:58:02;;;;;;;5.13;1.50;;;;;;;8.81;49.34;98106.72;4150617;28;20076;-75
2024/02/23 08:00:04;;;;;;;3.20;0.90;;;;;;;8.84;49.23;98101.03;4140292;28;20034;-75
2024/02/23 08:02:05;;;;;;;;;;;;;;;8.53;49.50;98104.63;4148386;28;20498;-75
2024/02/23 08:04:06;;;;;;;4.50;1.23;;;;;;;8.79;49.31;98102.59;4147672;28;20429;-75
2024/02/23 08:06:07;;;;;;;4.53;2.03;;;;;;;8.86;49.38;98104.38;4148273;28;20401;-75
2024/02/23 08:08:07;;;;;;;4.43;1.58;;;;;;;8.67;49.62;98110.19;4148570;28;20100;-76
2024/02/23 08:10:09;;;;;;;5.97;1.33;;;;;;;8.57;50.08;98107.78;4148189;28;20495;-75
2024/02/23 08:12:11;;;;;;;6.60;1.42;;;;;;;8.66;50.18;98109.34;4147458;28;20348;-75
2024/02/23 08:14:11;;;;;;;6.50;1.88;;;;;;;8.80;49.84;98097.06;4147382;28;20025;-76
2024/02/23 08:16:12;;;;;;;3.78;1.17;;;;;;;8.77;50.26;98112.59;4146863;28;20025;-75
2024/02/23 08:18:12;;;;;;;9.27;1.48;;;;;;;8.69;50.27;98117.00;4148520;28;20108;-75
2024/02/23 08:20:12;;;;;;;8.77;1.20;;;;;;;8.63;50.53;98115.06;4148843;28;20352;-75
2024/02/23 08:22:13;;;;;;;3.08;1.13;;;;;;;8.88;50.10;98112.97;4149672;28;20068;-76
2024/02/23 08:24:14;;;;;;;4.75;1.45;;;;;;;9.00;49.84;98102.72;4149004;28;20038;-76
2024/02/23 08:26:15;;;;;;;8.82;1.40;;;;;;;9.08;49.77;98107.13;4148328;28;20026;-76
2024/02/23 08:28:15;;;;;;;4.38;1.80;;;;;;;9.13;49.76;98103.91;4147668;28;20037;-75
2024/02/23 08:30:15;;;;;;;2.57;1.00;;;;;;;9.00;49.97;98109.88;4146924;28;20648;-74
2024/02/23 08:32:17;;;;;;;6.53;1.23;;;;;;;9.38;49.18;98117.81;4147091;28;20033;-77
2024/02/23 08:34:18;;;;;;;5.47;1.58;;;;;;;9.27;49.41;98115.59;4148959;28;20080;-76
2024/02/23 08:36:18;;;;;;;5.55;1.67;;;;;;;9.45;49.27;98108.03;4148905;28;20394;-74
2024/02/23 08:38:19;;;;;;;4.27;1.47;;;;;;;9.40;49.63;98104.31;4149152;28;20038;-76
2024/02/23 08:40:19;;;;;;;4.35;1.50;;;;;;;9.45;49.65;98100.03;4146802;28;20103;-76
2024/02/23 08:42:20;;;;;;;3.47;1.15;;;;;;;9.52;49.33;98108.97;4147185;28;20033;-76
2024/02/23 08:44:21;;;;;;;4.63;1.15;;;;;;;9.36;49.76;98099.34;4146789;28;20081;-76
2024/02/23 08:46:21;;;;;;;5.85;2.13;;;;;;;9.26;50.02;98103.31;4147684;28;20063;-76
2024/02/23 08:48:22;;;;;;;4.78;1.25;;;;;;;9.26;50.12;98100.63;4147468;28;20052;-75
2024/02/23 08:50:22;;;;;;;5.00;1.23;;;;;;;9.30;50.29;98088.56;4147321;28;20022;-76
2024/02/23 08:52:23;;;;;;;3.95;1.27;;;;;;;9.64;49.60;98081.81;4147565;28;20037;-76
2024/02/23 08:54:23;;;;;;;4.65;1.40;;;;;;;9.36;50.24;98075.34;4147892;28;20710;-75
2024/02/23 08:56:24;;;;;;;2.10;0.80;;;;;;;9.52;50.13;98081.47;4146346;28;20030;-76
2024/02/23 08:58:24;;;;;;;8.05;1.50;;;;;;;9.64;49.79;98079.97;4147735;28;20144;-75
2024/02/23 09:00:24;;;;;;;6.93;1.20;;;;;;;9.63;49.96;98088.19;4154715;28;20568;-75
2024/02/23 09:02:25;;;;;;;3.53;1.10;;;;;;;9.72;49.89;98091.56;4163735;28;20021;-75
2024/02/23 09:04:26;;;;;;;3.33;1.08;;;;;;;9.44;50.50;98089.56;4163614;28;20081;-75
2024/02/23 09:06:26;;;;;;;3.72;0.93;;;;;;;9.66;50.33;98101.13;4162044;28;20053;-75
2024/02/23 09:08:27;;;;;;;4.07;0.98;;;;;;;9.52;50.40;98092.97;4163761;28;20029;-75
2024/02/23 09:10:27;;;;;;;4.03;1.05;;;;;;;9.72;50.10;98097.75;4163518;28;20029;-75
2024/02/23 09:12:28;;;;;;;5.68;1.20;;;;;;;9.54;50.53;98089.31;4163451;28;20032;-76
2024/02/23 09:14:29;;;;;;;4.15;1.08;;;;;;;9.50;50.56;98092.34;4163653;28;20478;-77
2024/02/23 09:16:29;;;;;;;;;;;;;;;9.62;50.06;98092.69;4164558;28;20030;-75
2024/02/23 09:18:30;;;;;;;3.10;0.93;;;;;;;9.40;50.50;98088.31;4163794;28;19940;-76
2024/02/23 09:20:30;;;;;;;4.03;1.40;;;;;;;9.68;50.24;98086.59;4163753;28;20056;-75
2024/02/23 09:22:31;;;;;;;4.50;1.00;;;;;;;9.68;50.10;98086.59;4162475;28;20272;-75
2024/02/23 09:24:31;;;;;;;5.88;0.80;;;;;;;9.57;50.07;98096.91;4162540;28;20032;-75
2024/02/23 09:26:32;;;;;;;2.75;0.77;;;;;;;9.64;50.18;98095.16;4164140;28;20773;-75
2024/02/23 09:28:32;;;;;;;3.50;1.10;;;;;;;9.83;49.66;98094.56;4163414;28;20021;-75
2024/02/23 09:30:33;;;;;;;3.05;0.93;;;;;;;9.67;50.19;98100.97;4162091;28;20029;-75
2024/02/23 09:32:34;;;;;;;4.07;1.02;;;;;;;9.74;50.38;98101.03;4163122;28;20029;-75
2024/02/23 09:34:34;;;;;;;5.47;1.20;;;;;;;9.74;50.04;98095.69;4163373;28;20033;-75
2024/02/23 09:36:35;;;;;;;3.60;1.05;;;;;;;9.70;50.21;98096.25;4163162;28;20118;-75